Time;durP1;ratioP1;P1;durP2;ratioP2;P2;SDS_P1;SDS_P2;PMS_P1;PMS_P2;Temp;Humidity;BMP_temperature;BMP_pressure;BME280_temperature;BME280_humidity;BME280_pressure;Samples;Min_cycle;Max_cycle;Signal;HPM_P1;HPM_P2
2023/01/03 00:01:53;;;;;;;14.40;6.37;;;6.20;99.90;;;;;;5030716;28;20201;-58
2023/01/03 00:04:20;;;;;;;17.30;6.93;;;6.20;99.90;;;;;;5030469;28;20715;-58
2023/01/03 00:06:50;;;;;;;14.20;6.90;;;6.20;99.90;;;;;;5030461;28;20201;-58
2023/01/03 00:09:18;;;;;;;14.80;6.20;;;6.30;99.90;;;;;;5030530;28;20201;-58
2023/01/03 00:14:34;;;;;;;12.70;5.63;;;6.20;99.90;;;;;;5030677;28;20209;-58
2023/01/03 00:17:01;;;;;;;16.87;6.30;;;6.10;99.90;;;;;;5030602;28;20210;-58
2023/01/03 00:19:28;;;;;;;9.57;5.30;;;6.10;99.90;;;;;;5032374;28;20224;-57
2023/01/03 00:21:55;;;;;;;17.00;6.07;;;6.10;99.90;;;;;;5019454;28;20198;-57
2023/01/03 00:24:20;;;;;;;12.00;5.10;;;6.10;99.90;;;;;;5030196;28;20181;-58
2023/01/03 00:26:46;;;;;;;12.13;5.30;;;6.20;99.90;;;;;;5032969;28;20232;-57
2023/01/03 00:29:12;;;;;;;15.70;6.17;;;6.00;99.90;;;;;;5034371;28;20217;-55
2023/01/03 00:31:39;;;;;;;11.50;5.90;;;6.00;99.90;;;;;;5033955;28;20175;-54
2023/01/03 00:34:05;;;;;;;19.67;5.97;;;6.00;99.90;;;;;;5033844;28;20166;-54
2023/01/03 00:36:31;;;;;;;11.17;5.37;;;6.00;99.90;;;;;;5034296;28;20217;-54
2023/01/03 00:38:57;;;;;;;11.23;5.30;;;6.00;99.90;;;;;;5034293;28;20255;-55
2023/01/03 00:41:22;;;;;;;9.53;5.50;;;5.90;99.90;;;;;;5034155;28;20166;-55
2023/01/03 00:43:49;;;;;;;11.00;6.07;;;5.90;99.90;;;;;;5025487;28;20548;-55
2023/01/03 00:46:16;;;;;;;13.23;5.83;;;5.90;99.90;;;;;;5014314;28;20182;-55
2023/01/03 00:48:42;;;;;;;12.10;5.63;;;5.80;99.90;;;;;;5014042;28;20754;-55
2023/01/03 00:51:17;;;;;;;10.37;5.50;;;5.80;99.90;;;;;;5014289;28;20171;-56
2023/01/03 00:53:44;;;;;;;11.40;5.67;;;5.90;99.90;;;;;;5014047;28;20513;-55
2023/01/03 00:56:12;;;;;;;13.80;6.03;;;6.10;99.90;;;;;;5013859;28;20182;-56
2023/01/03 00:58:38;;;;;;;13.87;5.97;;;6.00;99.90;;;;;;5013781;28;20170;-55
2023/01/03 01:01:20;;;;;;;11.23;5.37;;;6.00;99.90;;;;;;5013884;28;20716;-56
2023/01/03 01:03:49;;;;;;;17.53;5.87;;;6.10;99.90;;;;;;5013570;28;20728;-54
2023/01/03 01:06:19;;;;;;;11.63;5.93;;;6.10;99.90;;;;;;5013594;28;20194;-54
2023/01/03 01:08:45;;;;;;;12.93;5.53;;;6.20;99.90;;;;;;5013662;28;20214;-54
2023/01/03 01:11:13;;;;;;;10.73;5.73;;;6.10;99.90;;;;;;5013648;28;20178;-55
2023/01/03 01:13:40;;;;;;;10.67;5.20;;;6.20;99.90;;;;;;5013740;28;20190;-55
2023/01/03 01:16:12;;;;;;;14.73;6.00;;;6.20;99.90;;;;;;5005955;28;20241;-55
2023/01/03 01:18:39;;;;;;;15.47;5.57;;;6.10;99.90;;;;;;5015537;28;20634;-55
2023/01/03 01:21:07;;;;;;;13.00;5.53;;;6.20;99.90;;;;;;5033207;28;20178;-54
2023/01/03 01:23:35;;;;;;;15.00;5.80;;;6.10;99.90;;;;;;5033252;28;20182;-55
2023/01/03 01:26:05;;;;;;;13.60;5.60;;;6.10;99.90;;;;;;5033201;28;20192;-55
2023/01/03 01:28:32;;;;;;;11.60;5.73;;;6.20;99.90;;;;;;5033122;28;20637;-56
2023/01/03 01:31:00;;;;;;;13.83;6.17;;;6.20;99.90;;;;;;5032359;28;20252;-55
2023/01/03 01:33:27;;;;;;;12.73;6.57;;;6.20;99.90;;;;;;5032871;28;20170;-55
2023/01/03 01:35:53;;;;;;;14.07;6.07;;;6.20;99.90;;;;;;5032650;28;20196;-55
2023/01/03 01:38:18;;;;;;;10.40;5.50;;;6.30;99.90;;;;;;5032105;28;20185;-56
2023/01/03 01:40:44;;;;;;;16.00;5.83;;;6.30;99.90;;;;;;5032800;28;20192;-56
2023/01/03 01:46:27;;;;;;;11.57;4.97;;;6.30;99.90;;;;;;5033044;28;20176;-56
2023/01/03 01:48:59;;;;;;;15.57;5.40;;;6.30;99.90;;;;;;5032348;28;20232;-56
2023/01/03 01:51:29;;;;;;;11.67;5.27;;;6.30;99.90;;;;;;5032987;28;20635;-56
2023/01/03 01:53:58;;;;;;;12.07;5.53;;;6.30;99.90;;;;;;5032548;28;20185;-56
2023/01/03 01:56:32;;;;;;;9.53;5.60;;;6.30;99.90;;;;;;5023071;28;20190;-56
2023/01/03 01:58:58;;;;;;;12.77;5.73;;;6.30;99.90;;;;;;5032464;28;20181;-55
2023/01/03 02:01:24;;;;;;;10.80;5.40;;;6.30;99.90;;;;;;5032446;28;20182;-56
2023/01/03 02:04:00;;;;;;;15.17;5.43;;;6.30;99.90;;;;;;5032305;28;20217;-55
2023/01/03 02:06:27;;;;;;;14.97;5.90;;;6.40;99.90;;;;;;5032230;28;20181;-56
2023/01/03 02:08:53;;;;;;;13.60;5.17;;;6.20;99.90;;;;;;5032016;28;20221;-56
2023/01/03 02:11:43;;;;;;;13.10;4.77;;;6.40;99.90;;;;;;5024840;28;20414;-56
2023/01/03 02:14:44;;;;;;;9.93;4.73;;;6.70;99.90;;;;;;5032287;28;20189;-56
2023/01/03 02:17:47;;;;;;;16.30;5.10;;;6.60;99.90;;;;;;5032300;28;20177;-56
2023/01/03 02:20:24;;;;;;;12.70;4.77;;;6.20;99.90;;;;;;5032140;28;20174;-56
2023/01/03 02:23:31;;;;;;;8.13;4.40;;;6.50;99.90;;;;;;5032422;28;20231;-56
2023/01/03 02:26:12;;;;;;;10.67;4.37;;;6.40;99.90;;;;;;5032099;28;20691;-56
2023/01/03 02:29:15;;;;;;;13.50;5.03;;;6.30;99.90;;;;;;5031936;28;20287;-54
2023/01/03 02:32:01;;;;;;;9.97;4.67;;;5.70;99.90;;;;;;5032170;28;20169;-54
2023/01/03 02:34:46;;;;;;;16.93;5.13;;;6.50;99.90;;;;;;5026985;28;20182;-55
2023/01/03 02:37:28;;;;;;;9.30;4.80;;;6.40;99.90;;;;;;5030434;28;20240;-56
2023/01/03 02:40:30;;;;;;;13.13;4.97;;;6.20;99.90;;;;;;5031389;28;20173;-55
2023/01/03 02:43:09;;;;;;;13.83;5.03;;;6.30;99.90;;;;;;5030425;28;20169;-56
2023/01/03 02:45:47;;;;;;;16.47;5.17;;;6.30;99.90;;;;;;5031499;28;20173;-55
2023/01/03 02:48:34;;;;;;;11.70;5.33;;;6.10;99.90;;;;;;5031292;28;20205;-56
2023/01/03 02:51:05;;;;;;;9.50;4.73;;;6.10;99.90;;;;;;5016489;28;20169;-56
2023/01/03 02:53:37;;;;;;;17.07;5.37;;;6.10;99.90;;;;;;5031082;28;20170;-56
2023/01/03 02:56:09;;;;;;;10.80;5.00;;;6.00;99.90;;;;;;5031260;28;20183;-54
2023/01/03 02:58:38;;;;;;;17.53;5.63;;;6.00;99.90;;;;;;5031210;28;20185;-54
2023/01/03 03:01:06;;;;;;;16.23;5.90;;;5.90;99.90;;;;;;5030805;28;20339;-54
2023/01/03 03:03:36;;;;;;;12.23;5.10;;;6.00;99.90;;;;;;5031207;28;20309;-55
2023/01/03 03:06:10;;;;;;;11.83;5.90;;;6.00;99.90;;;;;;5028851;28;20185;-55
2023/01/03 03:08:36;;;;;;;17.13;5.60;;;6.20;99.90;;;;;;5014011;28;20425;-55
2023/01/03 03:13:52;;;;;;;14.43;4.93;;;6.10;99.90;;;;;;5030937;28;20243;-54
2023/01/03 03:16:46;;;;;;;12.90;5.20;;;6.40;99.90;;;;;;5024613;28;20186;-55
2023/01/03 03:25:12;;;;;;;15.60;5.57;;;6.50;99.90;;;;;;5030537;28;20255;-55
2023/01/03 03:30:28;;;;;;;16.23;5.67;;;6.60;99.90;;;;;;5028905;28;20231;-55
2023/01/03 03:32:58;;;;;;;12.33;5.60;;;6.50;99.90;;;;;;5030683;28;20185;-55
2023/01/03 03:35:25;;;;;;;10.67;5.50;;;6.80;99.90;;;;;;5030548;28;20181;-55
2023/01/03 03:37:54;;;;;;;13.73;5.40;;;6.60;99.90;;;;;;5030370;28;20184;-55
2023/01/03 03:46:23;;;;;;;17.17;5.43;;;6.70;99.90;;;;;;5030400;28;20212;-55
2023/01/03 03:52:17;;;;;;;13.63;4.53;;;6.80;99.90;;;;;;5017155;28;20186;-55
2023/01/03 03:55:09;;;;;;;11.63;5.37;;;7.00;99.90;;;;;;5032903;28;20177;-55
2023/01/03 03:57:40;;;;;;;13.37;4.80;;;7.00;99.90;;;;;;5025862;28;20219;-55
2023/01/03 04:00:28;;;;;;;10.07;4.87;;;7.10;99.90;;;;;;5034282;28;20186;-55
2023/01/03 04:02:56;;;;;;;12.47;4.80;;;7.10;99.90;;;;;;5033947;28;20177;-55
2023/01/03 04:05:26;;;;;;;9.87;4.53;;;7.00;99.90;;;;;;5027052;28;20297;-55
2023/01/03 04:07:52;;;;;;;9.47;3.93;;;7.10;99.90;;;;;;5034461;28;20217;-55
2023/01/03 04:10:19;;;;;;;19.40;4.67;;;;;;;;;;5033007;28;20597;-55
2023/01/03 04:12:50;;;;;;;11.23;4.47;;;7.20;99.90;;;;;;5034182;28;20231;-55
2023/01/03 04:15:16;;;;;;;9.33;4.00;;;7.20;99.90;;;;;;5034378;28;20188;-56
2023/01/03 04:17:42;;;;;;;11.50;4.30;;;7.20;99.90;;;;;;5034257;28;20246;-56
2023/01/03 04:20:09;;;;;;;8.93;4.03;;;7.20;99.90;;;;;;5034376;28;20189;-56
2023/01/03 04:22:35;;;;;;;12.00;3.97;;;7.30;99.90;;;;;;5034173;28;20186;-56
2023/01/03 04:25:01;;;;;;;6.43;3.67;;;7.30;99.90;;;;;;5033845;28;20347;-56
2023/01/03 04:27:27;;;;;;;11.40;3.80;;;7.40;99.90;;;;;;5034077;28;20224;-56
2023/01/03 04:29:52;;;;;;;14.73;3.40;;;7.40;99.90;;;;;;5034346;28;20247;-56
2023/01/03 04:32:18;;;;;;;8.77;4.00;;;7.40;99.90;;;;;;5034146;28;20235;-59
2023/01/03 04:34:44;;;;;;;12.73;3.47;;;7.40;99.90;;;;;;5034014;28;20194;-56
2023/01/03 04:37:10;;;;;;;14.03;3.77;;;7.40;99.90;;;;;;5033489;28;20660;-55
2023/01/03 04:39:35;;;;;;;14.63;3.23;;;7.60;99.90;;;;;;5033709;28;20228;-56
2023/01/03 04:44:00;;;;;;;11.27;3.10;;;7.50;99.90;;;;;;5033812;28;20204;-56
2023/01/03 04:44:47;;;;;;;8.40;2.30;;;7.70;99.90;;;;;;5033864;28;20166;-56
2023/01/03 04:47:12;;;;;;;7.63;2.47;;;7.80;99.90;;;;;;5033967;28;20252;-56
2023/01/03 04:49:38;;;;;;;7.83;2.47;;;8.00;99.90;;;;;;5033735;28;20178;-55
2023/01/03 04:52:03;;;;;;;9.30;2.43;;;8.00;99.90;;;;;;5027188;28;20263;-56
2023/01/03 04:54:29;;;;;;;9.60;2.83;;;8.20;99.90;;;;;;5028109;28;20205;-55
2023/01/03 04:56:55;;;;;;;8.37;1.90;;;8.10;99.90;;;;;;5022817;28;20641;-56
2023/01/03 04:59:20;;;;;;;3.87;1.67;;;8.10;99.90;;;;;;5006580;28;20222;-56
2023/01/03 05:01:50;;;;;;;10.03;1.60;;;8.20;99.90;;;;;;5014074;28;20522;-57
2023/01/03 05:04:16;;;;;;;10.40;1.60;;;8.30;99.90;;;;;;5013790;28;20229;-59
2023/01/03 05:06:42;;;;;;;7.97;2.00;;;8.30;99.90;;;;;;5012792;28;20179;-58
2023/01/03 05:09:08;;;;;;;4.33;1.50;;;8.30;99.90;;;;;;5013618;28;20229;-58
2023/01/03 05:11:33;;;;;;;7.07;1.50;;;8.40;99.90;;;;;;5013861;28;20258;-58
2023/01/03 05:13:59;;;;;;;7.87;1.33;;;8.50;99.90;;;;;;5013805;28;20174;-58
2023/01/03 05:16:24;;;;;;;9.40;1.27;;;8.50;99.90;;;;;;5013759;28;20178;-58
2023/01/03 05:18:50;;;;;;;9.00;1.27;;;8.60;99.90;;;;;;5013797;28;20171;-58
2023/01/03 05:26:48;;;;;;;5.20;1.37;;;8.80;99.90;;;;;;5032914;28;20181;-58
2023/01/03 05:29:17;;;;;;;12.63;1.50;;;8.90;99.90;;;;;;5033364;28;20182;-58
2023/01/03 05:31:43;;;;;;;11.70;1.60;;;8.90;99.90;;;;;;5032323;28;20180;-59
2023/01/03 05:34:09;;;;;;;13.43;1.53;;;;;;;;;;5033112;28;20213;-58
2023/01/03 05:36:35;;;;;;;9.90;1.30;;;8.90;99.90;;;;;;5032370;28;20224;-58
2023/01/03 05:39:01;;;;;;;10.20;1.53;;;;;;;;;;5021559;28;20182;-58
2023/01/03 05:44:11;;;;;;;14.70;1.67;;;8.90;99.90;;;;;;5020739;28;20205;-58
2023/01/03 05:46:36;;;;;;;10.60;1.50;;;9.10;99.90;;;;;;5031519;28;20173;-58
2023/01/03 05:49:02;;;;;;;9.53;1.60;;;9.10;99.90;;;;;;5029656;28;20228;-58
2023/01/03 05:51:28;;;;;;;15.20;2.13;;;9.10;99.90;;;;;;5027811;28;20273;-58
2023/01/03 05:53:53;;;;;;;10.03;1.40;;;9.10;99.90;;;;;;5025881;28;20193;-58
2023/01/03 05:56:19;;;;;;;9.33;1.70;;;9.10;99.90;;;;;;5031091;28;20521;-58
2023/01/03 05:58:45;;;;;;;19.70;1.97;;;9.10;99.90;;;;;;5026028;28;20213;-58
2023/01/03 06:01:12;;;;;;;11.20;1.47;;;9.20;99.90;;;;;;5012923;28;20236;-58
2023/01/03 06:03:38;;;;;;;8.33;1.13;;;9.20;99.90;;;;;;5029128;28;20762;-58
2023/01/03 06:06:05;;;;;;;16.47;1.50;;;9.20;99.90;;;;;;5031823;28;20181;-58
2023/01/03 06:08:32;;;;;;;19.30;1.93;;;9.30;99.90;;;;;;5031956;28;20217;-59
2023/01/03 06:10:57;;;;;;;10.27;1.70;;;9.30;99.90;;;;;;5032466;28;20170;-58
2023/01/03 06:13:23;;;;;;;10.30;1.77;;;9.30;99.90;;;;;;5032369;28;20177;-59
2023/01/03 06:18:34;;;;;;;9.70;1.77;;;9.40;99.90;;;;;;5032242;28;20175;-58
2023/01/03 06:21:03;;;;;;;15.53;1.97;;;9.40;99.90;;;;;;5032238;28;20216;-60
2023/01/03 06:23:28;;;;;;;12.80;1.77;;;9.60;99.90;;;;;;5032196;28;20181;-58
2023/01/03 06:25:54;;;;;;;12.97;1.47;;;9.20;99.90;;;;;;5032071;28;20189;-59
2023/01/03 06:28:19;;;;;;;12.70;1.93;;;9.40;99.90;;;;;;5032053;28;20272;-58
2023/01/03 06:30:45;;;;;;;13.00;1.83;;;9.50;99.90;;;;;;5032129;28;20252;-58
2023/01/03 06:33:13;;;;;;;9.93;1.17;;;9.60;99.90;;;;;;5032081;28;20178;-58
2023/01/03 06:35:39;;;;;;;13.63;1.60;;;;;;;;;;5032027;28;20182;-58
2023/01/03 06:38:05;;;;;;;17.70;1.97;;;10.20;99.90;;;;;;5023334;28;20194;-58
2023/01/03 06:40:31;;;;;;;29.50;2.00;;;9.80;99.90;;;;;;5031435;28;20186;-58
2023/01/03 06:42:56;;;;;;;20.03;2.30;;;9.70;99.90;;;;;;5031568;28;20193;-58
2023/01/03 06:53:41;;;;;;;16.00;1.70;;;9.90;99.90;;;;;;5026967;28;20259;-58
2023/01/03 06:56:08;;;;;;;17.50;2.23;;;10.00;99.90;;;;;;5025770;28;20261;-59
2023/01/03 06:58:34;;;;;;;15.87;1.97;;;9.90;99.90;;;;;;5030616;28;20680;-58
2023/01/03 07:01:02;;;;;;;15.63;2.00;;;9.80;99.90;;;;;;5031257;28;20640;-58
2023/01/03 07:03:28;;;;;;;13.60;1.70;;;;;;;;;;5030689;28;20308;-58
2023/01/03 07:05:54;;;;;;;12.80;1.87;;;9.90;99.90;;;;;;5030858;28;20201;-58
2023/01/03 07:08:20;;;;;;;8.90;1.17;;;9.70;99.90;;;;;;5031025;28;20259;-58
2023/01/03 07:10:46;;;;;;;9.73;0.97;;;9.90;99.90;;;;;;5031006;28;20174;-58
2023/01/03 07:15:56;;;;;;;14.23;2.03;;;10.10;99.90;;;;;;5011928;28;20185;-58
2023/01/03 07:18:22;;;;;;;15.67;1.20;;;10.20;99.90;;;;;;5016970;28;20170;-58
2023/01/03 07:20:47;;;;;;;11.47;1.30;;;10.30;99.90;;;;;;5014684;28;20309;-58
2023/01/03 07:23:13;;;;;;;7.47;1.27;;;10.30;99.90;;;;;;5030294;28;20249;-58
2023/01/03 07:25:40;;;;;;;12.73;1.37;;;10.30;99.90;;;;;;5030877;28;20539;-58
2023/01/03 07:28:13;;;;;;;6.17;1.00;;;10.30;99.90;;;;;;5030067;28;20206;-58
2023/01/03 07:30:41;;;;;;;13.27;1.03;;;10.40;99.90;;;;;;5028976;28;20182;-58
2023/01/03 07:33:08;;;;;;;7.93;1.37;;;10.40;99.90;;;;;;5030626;28;20177;-58
2023/01/03 07:35:34;;;;;;;6.43;0.87;;;10.50;99.90;;;;;;5030481;28;20181;-58
2023/01/03 07:38:01;;;;;;;4.10;1.23;;;10.50;99.90;;;;;;5028313;28;20229;-58
2023/01/03 07:40:27;;;;;;;12.13;1.20;;;;;;;;;;5030107;28;20683;-58
2023/01/03 07:45:41;;;;;;;7.53;0.60;;;10.30;99.90;;;;;;5026651;28;20196;-58
2023/01/03 07:48:07;;;;;;;12.50;1.60;;;10.50;99.90;;;;;;5025908;28;20217;-58
2023/01/03 07:50:33;;;;;;;7.47;1.43;;;;;;;;;;5025330;28;20170;-58
2023/01/03 07:52:59;;;;;;;10.60;1.97;;;10.70;99.90;;;;;;5030432;28;20587;-57
2023/01/03 07:55:24;;;;;;;13.83;1.70;;;10.60;99.90;;;;;;5021777;28;20184;-58
2023/01/03 07:57:50;;;;;;;11.43;2.10;;;10.60;99.90;;;;;;5015464;28;20186;-57
2023/01/03 08:00:16;;;;;;;18.37;2.20;;;10.60;99.90;;;;;;5020234;28;20181;-57
2023/01/03 08:02:41;;;;;;;19.30;1.83;;;10.70;99.90;;;;;;5030647;28;20276;-57
2023/01/03 08:05:07;;;;;;;22.57;2.53;;;10.70;99.90;;;;;;5030532;28;20225;-57
2023/01/03 08:07:33;;;;;;;10.20;1.40;;;10.80;99.90;;;;;;5030344;28;20617;-57
2023/01/03 08:15:27;;;;;;;14.77;1.23;;;10.90;99.90;;;;;;5030306;28;20251;-56
2023/01/03 08:17:52;;;;;;;18.47;2.43;;;10.90;99.90;;;;;;5029400;28;20636;-57
2023/01/03 08:20:18;;;;;;;11.73;2.10;;;11.10;99.90;;;;;;5030688;28;20220;-57
2023/01/03 08:22:43;;;;;;;4.57;0.80;;;10.90;99.90;;;;;;5030341;28;20166;-57
2023/01/03 08:25:09;;;;;;;12.07;2.47;;;10.90;99.90;;;;;;5030048;28;20177;-56
2023/01/03 08:27:35;;;;;;;20.20;2.40;;;10.90;99.90;;;;;;5030519;28;20212;-56
2023/01/03 08:30:00;;;;;;;11.77;1.90;;;10.90;99.90;;;;;;5028880;28;20520;-56
2023/01/03 08:32:27;;;;;;;7.10;1.30;;;10.80;99.90;;;;;;5030446;28;20182;-57
2023/01/03 08:34:53;;;;;;;7.83;1.47;;;10.80;99.90;;;;;;5028788;28;20269;-56
2023/01/03 08:37:19;;;;;;;16.17;1.70;;;10.80;99.90;;;;;;5030025;28;20252;-56
2023/01/03 08:39:53;;;;;;;13.33;1.40;;;10.80;99.90;;;;;;5030960;28;20244;-56
2023/01/03 08:42:22;;;;;;;12.67;1.57;;;10.80;99.90;;;;;;5028431;28;20210;-56
2023/01/03 08:44:51;;;;;;;14.50;1.80;;;10.80;99.90;;;;;;5031037;28;20255;-57
2023/01/03 08:47:17;;;;;;;11.27;1.30;;;10.80;99.90;;;;;;5031216;28;20297;-57
2023/01/03 08:49:43;;;;;;;11.20;1.20;;;10.90;99.90;;;;;;5032606;28;20644;-57
2023/01/03 08:52:08;;;;;;;8.60;1.10;;;10.80;99.90;;;;;;5034074;28;20252;-57
2023/01/03 08:54:34;;;;;;;8.70;1.50;;;10.80;99.90;;;;;;5034054;28;20198;-57
2023/01/03 08:57:00;;;;;;;7.83;1.00;;;10.80;99.90;;;;;;5033493;28;20213;-57
2023/01/03 08:59:25;;;;;;;3.80;0.57;;;10.80;99.90;;;;;;5039813;28;20215;-56
2023/01/03 09:01:51;;;;;;;7.17;1.33;;;;;;;;;;5033062;28;20213;-57
2023/01/03 09:04:17;;;;;;;5.90;0.77;;;10.80;99.90;;;;;;5032258;28;20232;-57
2023/01/03 09:06:42;;;;;;;3.70;0.80;;;10.80;99.90;;;;;;5019935;28;20254;-57
2023/01/03 09:09:08;;;;;;;4.00;0.57;;;10.80;99.90;;;;;;5018384;28;20245;-57
2023/01/03 09:11:34;;;;;;;4.93;0.60;;;10.70;99.90;;;;;;5033692;28;20181;-57
2023/01/03 09:14:00;;;;;;;3.93;0.67;;;11.80;99.90;;;;;;5033591;28;20602;-57
2023/01/03 09:16:26;;;;;;;1.90;0.30;;;10.50;99.90;;;;;;5032669;28;20186;-58
2023/01/03 09:18:51;;;;;;;2.33;0.70;;;10.50;99.90;;;;;;5032992;28;20521;-58
2023/01/03 09:21:17;;;;;;;0.50;0.23;;;10.30;99.90;;;;;;5033559;28;20199;-57
2023/01/03 09:23:42;;;;;;;2.17;0.40;;;10.40;99.90;;;;;;5033175;28;20189;-57
2023/01/03 09:26:08;;;;;;;1.70;0.43;;;;;;;;;;5033238;28;20215;-57
2023/01/03 09:28:34;;;;;;;1.47;0.33;;;10.50;99.90;;;;;;5033278;28;20296;-56
2023/01/03 09:31:00;;;;;;;5.73;0.40;;;10.40;99.90;;;;;;5022254;28;20269;-58
2023/01/03 09:33:26;;;;;;;2.57;0.33;;;;;;;;;;5027608;28;20484;-58
2023/01/03 09:35:53;;;;;;;0.97;0.40;;;10.70;99.90;;;;;;5052634;28;20180;-58
2023/01/03 09:38:19;;;;;;;5.13;1.10;;;10.70;99.90;;;;;;5051720;28;20348;-57
2023/01/03 09:40:46;;;;;;;5.27;1.23;;;10.60;99.90;;;;;;5051245;28;20166;-57
2023/01/03 09:43:21;;;;;;;4.80;0.90;;;10.80;99.90;;;;;;5050538;28;20205;-57
2023/01/03 09:45:57;;;;;;;6.17;0.90;;;10.90;99.90;;;;;;5051432;28;20251;-58
2023/01/03 09:48:38;;;;;;;4.27;1.20;;;10.90;99.90;;;;;;5042490;28;20241;-57
2023/01/03 10:03:42;;;;;;;8.87;1.40;;;11.00;99.90;;;;;;5032626;28;20182;-57
2023/01/03 10:05:46;;;;;;;2.63;0.73;;;10.80;99.90;;;;;;5007223;28;20192;-57
2023/01/03 10:08:30;;;;;;;4.33;0.90;;;10.90;99.90;;;;;;5032704;28;20696;-57
2023/01/03 10:11:05;;;;;;;6.33;0.73;;;10.80;99.90;;;;;;5032469;28;20181;-57
2023/01/03 10:13:49;;;;;;;4.27;0.63;;;10.80;99.90;;;;;;5032431;28;20223;-58
2023/01/03 10:16:36;;;;;;;6.40;0.60;;;10.80;99.90;;;;;;5032480;28;20235;-59
2023/01/03 10:19:45;;;;;;;1.93;0.40;;;10.70;99.90;;;;;;5032156;28;20548;-58
2023/01/03 10:22:19;;;;;;;3.73;0.90;;;10.70;99.90;;;;;;5023915;28;20193;-57
2023/01/03 10:25:20;;;;;;;2.87;0.80;;;10.70;99.90;;;;;;5032170;28;20185;-57
2023/01/03 10:27:50;;;;;;;5.00;1.10;;;10.70;99.90;;;;;;5032145;28;20271;-56
2023/01/03 10:30:29;;;;;;;3.87;0.70;;;10.70;99.90;;;;;;5032182;28;20165;-56
2023/01/03 10:33:22;;;;;;;3.07;0.70;;;10.80;99.90;;;;;;5031930;28;20169;-56
2023/01/03 10:35:50;;;;;;;2.30;0.70;;;10.90;99.90;;;;;;5030881;28;20186;-57
2023/01/03 10:38:17;;;;;;;5.77;1.07;;;11.00;99.90;;;;;;5029850;28;20645;-56
2023/01/03 10:40:46;;;;;;;5.63;0.73;;;11.00;99.90;;;;;;5029038;28;20190;-56
2023/01/03 10:43:17;;;;;;;4.73;0.87;;;11.10;99.90;;;;;;5031631;28;20178;-57
2023/01/03 10:45:57;;;;;;;4.97;0.90;;;11.10;99.90;;;;;;5021713;28;20637;-57
2023/01/03 10:48:32;;;;;;;5.10;0.80;;;11.10;99.90;;;;;;5011790;28;20210;-58
2023/01/03 10:50:57;;;;;;;7.37;1.30;;;11.20;99.90;;;;;;5011948;28;20261;-57
2023/01/03 10:53:23;;;;;;;11.13;1.63;;;11.20;99.90;;;;;;5026725;28;20612;-56
2023/01/03 10:55:53;;;;;;;9.50;1.10;;;11.20;99.90;;;;;;5031346;28;20232;-56
2023/01/03 10:58:24;;;;;;;6.63;1.07;;;11.20;99.90;;;;;;5031004;28;20186;-56
2023/01/03 11:01:07;;;;;;;11.90;1.30;;;11.30;99.90;;;;;;5031325;28;20235;-57
2023/01/03 11:03:33;;;;;;;3.33;0.53;;;11.30;99.90;;;;;;5029675;28;20320;-55
2023/01/03 11:05:59;;;;;;;7.57;1.37;;;11.30;99.90;;;;;;5031129;28;20664;-56
2023/01/03 11:08:44;;;;;;;9.20;1.60;;;11.40;99.90;;;;;;5031168;28;20291;-56
2023/01/03 11:11:49;;;;;;;10.67;1.43;;;11.40;99.90;;;;;;5031542;28;20295;-55
2023/01/03 11:14:19;;;;;;;11.50;1.40;;;11.40;99.90;;;;;;5010132;28;20208;-55
2023/01/03 11:16:51;;;;;;;9.13;1.20;;;11.50;99.90;;;;;;5031225;28;20254;-55
2023/01/03 11:19:17;;;;;;;13.77;1.40;;;11.50;99.90;;;;;;5027918;28;20185;-55
2023/01/03 11:21:53;;;;;;;9.50;1.30;;;11.50;99.90;;;;;;5030892;28;20205;-55
2023/01/03 11:24:56;;;;;;;12.40;1.23;;;11.50;99.90;;;;;;5031098;28;20169;-55
2023/01/03 11:27:44;;;;;;;8.37;1.90;;;11.50;99.90;;;;;;5031404;28;20247;-55
2023/01/03 11:30:28;;;;;;;12.93;1.40;;;11.50;99.90;;;;;;5029666;28;20197;-56
2023/01/03 11:33:12;;;;;;;8.80;1.67;;;11.50;99.90;;;;;;5019304;28;20170;-56
2023/01/03 11:36:05;;;;;;;4.53;0.90;;;11.40;99.90;;;;;;5031070;28;20182;-55
2023/01/03 11:38:51;;;;;;;7.20;1.00;;;11.40;99.90;;;;;;5011178;28;20196;-56
2023/01/03 11:41:41;;;;;;;4.67;1.20;;;11.40;99.90;;;;;;5011034;28;20177;-56
2023/01/03 11:44:38;;;;;;;6.37;0.80;;;11.30;99.90;;;;;;5024966;28;20531;-56
2023/01/03 11:47:24;;;;;;;4.53;0.90;;;11.40;99.90;;;;;;5011039;28;20197;-56
2023/01/03 11:50:11;;;;;;;4.10;0.90;;;11.40;99.90;;;;;;5024656;28;20248;-57
2023/01/03 11:52:48;;;;;;;2.73;0.60;;;11.50;99.90;;;;;;5030871;28;20174;-56
2023/01/03 11:55:26;;;;;;;6.17;0.77;;;11.50;99.90;;;;;;5030668;28;20216;-56
2023/01/03 11:58:11;;;;;;;5.43;1.20;;;11.50;99.90;;;;;;5030474;28;20192;-56
2023/01/03 12:01:12;;;;;;;9.73;1.20;;;11.60;99.90;;;;;;5031018;28;20209;-56
2023/01/03 12:03:55;;;;;;;7.17;1.20;;;11.60;99.90;;;;;;5010307;28;20234;-57
2023/01/03 12:06:30;;;;;;;8.80;1.57;;;11.80;99.90;;;;;;5030721;28;20216;-57
2023/01/03 12:09:10;;;;;;;11.43;1.50;;;12.00;99.90;;;;;;5030626;28;20220;-57
2023/01/03 12:11:46;;;;;;;6.53;1.20;;;12.00;99.90;;;;;;5030569;28;20172;-54
2023/01/03 12:14:23;;;;;;;11.73;2.40;;;12.20;99.90;;;;;;5026748;28;20184;-56
2023/01/03 12:17:08;;;;;;;15.97;2.20;;;12.10;99.90;;;;;;5029910;28;20220;-54
2023/01/03 12:19:42;;;;;;;23.00;2.40;;;12.20;99.90;;;;;;5018284;28;20181;-55
2023/01/03 12:22:21;;;;;;;11.50;2.03;;;12.20;99.90;;;;;;5033952;28;20197;-60
2023/01/03 12:25:20;;;;;;;9.90;1.50;;;12.20;99.90;;;;;;5033380;28;20212;-55
2023/01/03 12:27:51;;;;;;;14.73;2.13;;;12.10;99.90;;;;;;5032890;28;20221;-55
2023/01/03 12:30:35;;;;;;;15.73;2.33;;;12.10;99.90;;;;;;5030264;28;20208;-55
2023/01/03 12:33:20;;;;;;;17.73;2.47;;;12.10;99.90;;;;;;5032969;28;20185;-56
2023/01/03 12:36:10;;;;;;;14.90;2.97;;;12.10;99.90;;;;;;5028230;28;20174;-56
2023/01/03 12:38:43;;;;;;;21.70;2.77;;;12.10;99.90;;;;;;5014471;28;20174;-56
2023/01/03 12:41:16;;;;;;;11.53;2.30;;;12.10;99.90;;;;;;5031895;28;20228;-56
2023/01/03 12:43:51;;;;;;;21.27;3.43;;;13.30;99.90;;;;;;5034195;28;20235;-56
2023/01/03 12:46:24;;;;;;;24.40;3.33;;;12.10;99.90;;;;;;5033621;28;20648;-56
2023/01/03 12:49:04;;;;;;;28.93;5.27;;;12.10;99.90;;;;;;5034000;28;20222;-56
2023/01/03 12:51:30;;;;;;;25.60;3.67;;;12.10;99.90;;;;;;5033611;28;20174;-56
2023/01/03 12:54:42;;;;;;;12.40;2.57;;;12.10;99.90;;;;;;5033737;28;20666;-56
2023/01/03 12:57:44;;;;;;;31.17;3.57;;;12.10;99.90;;;;;;5029645;28;20196;-56
2023/01/03 13:00:51;;;;;;;37.10;4.00;;;12.00;99.90;;;;;;5033026;28;20177;-56
2023/01/03 13:03:23;;;;;;;37.57;4.40;;;12.10;99.90;;;;;;5029197;28;20184;-56
2023/01/03 13:06:17;;;;;;;33.90;4.53;;;12.10;99.90;;;;;;5027570;28;20186;-56
2023/01/03 13:08:59;;;;;;;21.43;3.67;;;12.10;99.90;;;;;;5028820;28;20263;-57
2023/01/03 13:11:31;;;;;;;27.33;3.73;;;12.00;99.90;;;;;;5033689;28;20166;-57
2023/01/03 13:14:03;;;;;;;24.47;3.23;;;12.00;99.90;;;;;;5033625;28;20201;-57
2023/01/03 13:16:35;;;;;;;39.73;4.43;;;12.00;99.90;;;;;;5033493;28;20170;-57
2023/01/03 13:19:19;;;;;;;20.57;3.30;;;12.20;99.90;;;;;;5032576;28;20711;-57
2023/01/03 13:21:53;;;;;;;29.53;4.33;;;12.00;99.90;;;;;;5026691;28;20221;-57
2023/01/03 13:24:50;;;;;;;36.97;4.67;;;12.00;99.90;;;;;;5031454;28;20259;-57
2023/01/03 13:27:21;;;;;;;44.07;6.13;;;12.00;99.90;;;;;;5019039;28;20232;-57
2023/01/03 13:29:49;;;;;;;28.27;3.90;;;12.00;99.90;;;;;;5014098;28;20181;-57
2023/01/03 13:32:21;;;;;;;27.60;4.60;;;12.30;99.90;;;;;;5033223;28;20170;-56
2023/01/03 13:34:53;;;;;;;28.93;4.13;;;12.00;99.90;;;;;;5032521;28;20190;-56
2023/01/03 13:37:20;;;;;;;35.20;4.37;;;12.00;99.90;;;;;;5018639;28;20198;-57
2023/01/03 13:39:49;;;;;;;32.53;4.80;;;11.90;99.90;;;;;;5013572;28;20184;-56
2023/01/03 13:42:38;;;;;;;31.70;3.67;;;11.90;99.90;;;;;;5013316;28;20178;-56
2023/01/03 13:45:13;;;;;;;15.93;2.90;;;11.90;99.90;;;;;;5019403;28;20205;-56
2023/01/03 13:47:42;;;;;;;20.00;2.63;;;11.90;99.90;;;;;;5033188;28;20209;-56
2023/01/03 13:50:23;;;;;;;18.33;2.40;;;12.00;99.90;;;;;;5029737;28;20189;-56
2023/01/03 13:52:59;;;;;;;14.90;2.10;;;12.00;99.90;;;;;;5032556;28;20189;-57
2023/01/03 13:55:38;;;;;;;18.23;2.37;;;12.00;99.90;;;;;;5033059;28;20249;-56
2023/01/03 13:58:22;;;;;;;27.43;3.03;;;12.10;99.90;;;;;;5032176;28;20269;-56
2023/01/03 14:00:47;;;;;;;22.47;3.73;;;12.10;99.90;;;;;;5032054;28;20205;-55
2023/01/03 14:03:54;;;;;;;15.40;2.70;;;12.00;99.90;;;;;;5036575;28;20185;-56
2023/01/03 14:06:51;;;;;;;14.70;2.60;;;12.10;99.90;;;;;;5008710;28;20198;-56
2023/01/03 14:09:38;;;;;;;10.87;2.30;;;12.10;99.90;;;;;;5022059;28;20221;-56
2023/01/03 14:12:28;;;;;;;14.93;2.53;;;12.20;99.90;;;;;;5032524;28;20276;-56
2023/01/03 14:14:55;;;;;;;12.07;2.20;;;12.10;99.90;;;;;;5031584;28;20181;-56
2023/01/03 14:17:31;;;;;;;12.97;2.10;;;12.10;99.90;;;;;;5030076;28;20673;-56
2023/01/03 14:20:04;;;;;;;14.97;2.40;;;12.10;99.90;;;;;;5028171;28;20173;-55
2023/01/03 14:22:38;;;;;;;5.27;1.17;;;12.50;99.90;;;;;;5031689;28;20209;-56
2023/01/03 14:25:06;;;;;;;8.23;2.17;;;12.10;99.90;;;;;;5031309;28;20169;-55